sensor_id;sensor_type;location;lat;lon;timestamp;temperature;humidity
64012;DHT22;50211;52.768;12.124;2022-10-23T00:01:32;13.20;99.90
64012;DHT22;50211;52.768;12.124;2022-10-23T00:04:04;13.10;99.90
64012;DHT22;50211;52.768;12.124;2022-10-23T00:06:31;13.00;99.90
64012;DHT22;50211;52.768;12.124;2022-10-23T00:08:57;12.90;99.90
64012;DHT22;50211;52.768;12.124;2022-10-23T00:11:26;12.90;99.90
64012;DHT22;50211;52.768;12.124;2022-10-23T00:13:55;12.80;99.90
64012;DHT22;50211;52.768;12.124;2022-10-23T00:16:20;12.80;99.90
64012;DHT22;50211;52.768;12.124;2022-10-23T00:18:46;12.80;99.90
64012;DHT22;50211;52.768;12.124;2022-10-23T00:21:13;12.80;99.90
64012;DHT22;50211;52.768;12.124;2022-10-23T00:23:39;12.80;99.90
64012;DHT22;50211;52.768;12.124;2022-10-23T00:26:05;12.80;99.90
64012;DHT22;50211;52.768;12.124;2022-10-23T00:28:32;12.70;99.90
64012;DHT22;50211;52.768;12.124;2022-10-23T00:31:01;12.80;99.90
64012;DHT22;50211;52.768;12.124;2022-10-23T00:33:27;12.70;99.90
64012;DHT22;50211;52.768;12.124;2022-10-23T00:35:53;12.70;99.90
64012;DHT22;50211;52.768;12.124;2022-10-23T00:38:19;12.70;99.90
64012;DHT22;50211;52.768;12.124;2022-10-23T00:40:44;12.60;99.90
64012;DHT22;50211;52.768;12.124;2022-10-23T00:43:18;12.60;99.90
64012;DHT22;50211;52.768;12.124;2022-10-23T00:45:44;12.60;99.90
64012;DHT22;50211;52.768;12.124;2022-10-23T00:48:10;12.60;99.90
64012;DHT22;50211;52.768;12.124;2022-10-23T00:50:35;12.50;99.90
64012;DHT22;50211;52.768;12.124;2022-10-23T00:53:02;12.50;99.90
64012;DHT22;50211;52.768;12.124;2022-10-23T00:55:29;12.50;99.90
64012;DHT22;50211;52.768;12.124;2022-10-23T00:57:56;12.50;99.90
64012;DHT22;50211;52.768;12.124;2022-10-23T01:00:38;12.50;99.90
64012;DHT22;50211;52.768;12.124;2022-10-23T01:03:04;12.40;99.90
64012;DHT22;50211;52.768;12.124;2022-10-23T01:05:53;12.40;99.90
64012;DHT22;50211;52.768;12.124;2022-10-23T01:08:42;12.30;99.90
64012;DHT22;50211;52.768;12.124;2022-10-23T01:13:53;12.30;99.90
64012;DHT22;50211;52.768;12.124;2022-10-23T01:19:33;12.10;99.90
64012;DHT22;50211;52.768;12.124;2022-10-23T01:22:37;12.10;99.90
64012;DHT22;50211;52.768;12.124;2022-10-23T01:27:41;12.00;99.90
64012;DHT22;50211;52.768;12.124;2022-10-23T01:30:14;12.00;99.90
64012;DHT22;50211;52.768;12.124;2022-10-23T01:35:30;12.00;99.90
64012;DHT22;50211;52.768;12.124;2022-10-23T01:38:11;11.90;99.90
64012;DHT22;50211;52.768;12.124;2022-10-23T01:40:46;12.00;99.90
64012;DHT22;50211;52.768;12.124;2022-10-23T01:43:27;11.90;99.90
64012;DHT22;50211;52.768;12.124;2022-10-23T01:45:57;11.90;99.90
64012;DHT22;50211;52.768;12.124;2022-10-23T01:48:27;11.90;99.90
64012;DHT22;50211;52.768;12.124;2022-10-23T01:50:55;11.90;99.90
64012;DHT22;50211;52.768;12.124;2022-10-23T01:53:25;11.90;99.90
64012;DHT22;50211;52.768;12.124;2022-10-23T01:55:52;11.90;99.90
64012;DHT22;50211;52.768;12.124;2022-10-23T01:58:19;11.80;99.90
64012;DHT22;50211;52.768;12.124;2022-10-23T02:00:46;11.90;99.90
64012;DHT22;50211;52.768;12.124;2022-10-23T02:03:15;11.90;99.90
64012;DHT22;50211;52.768;12.124;2022-10-23T02:05:42;11.80;99.90
64012;DHT22;50211;52.768;12.124;2022-10-23T02:08:08;11.80;99.90
64012;DHT22;50211;52.768;12.124;2022-10-23T02:10:43;11.80;99.90
64012;DHT22;50211;52.768;12.124;2022-10-23T02:13:24;11.80;99.90
64012;DHT22;50211;52.768;12.124;2022-10-23T02:16:04;11.80;99.90
64012;DHT22;50211;52.768;12.124;2022-10-23T02:18:45;11.70;99.90
64012;DHT22;50211;52.768;12.124;2022-10-23T02:21:20;11.60;99.90
64012;DHT22;50211;52.768;12.124;2022-10-23T02:23:55;11.60;99.90
64012;DHT22;50211;52.768;12.124;2022-10-23T02:26:33;11.60;99.90
64012;DHT22;50211;52.768;12.124;2022-10-23T02:29:09;11.60;99.90
64012;DHT22;50211;52.768;12.124;2022-10-23T02:31:37;11.60;99.90
64012;DHT22;50211;52.768;12.124;2022-10-23T02:34:03;11.60;99.90
64012;DHT22;50211;52.768;12.124;2022-10-23T02:36:28;11.60;99.90
64012;DHT22;50211;52.768;12.124;2022-10-23T02:38:54;11.50;99.90
64012;DHT22;50211;52.768;12.124;2022-10-23T02:44:24;11.60;99.90
64012;DHT22;50211;52.768;12.124;2022-10-23T02:47:20;11.50;99.90
64012;DHT22;50211;52.768;12.124;2022-10-23T02:53:06;11.50;99.90
64012;DHT22;50211;52.768;12.124;2022-10-23T02:58:46;11.40;99.90
64012;DHT22;50211;52.768;12.124;2022-10-23T03:01:21;11.40;99.90
64012;DHT22;50211;52.768;12.124;2022-10-23T03:03:55;11.40;99.90
64012;DHT22;50211;52.768;12.124;2022-10-23T03:06:23;11.40;99.90
64012;DHT22;50211;52.768;12.124;2022-10-23T03:08:52;11.40;99.90
64012;DHT22;50211;52.768;12.124;2022-10-23T03:11:17;11.40;99.90
64012;DHT22;50211;52.768;12.124;2022-10-23T03:13:43;11.30;99.90
64012;DHT22;50211;52.768;12.124;2022-10-23T03:16:08;11.30;99.90
64012;DHT22;50211;52.768;12.124;2022-10-23T03:18:34;11.30;99.90
64012;DHT22;50211;52.768;12.124;2022-10-23T03:21:00;11.20;99.90
64012;DHT22;50211;52.768;12.124;2022-10-23T03:23:25;11.20;99.90
64012;DHT22;50211;52.768;12.124;2022-10-23T03:25:51;11.20;99.90
64012;DHT22;50211;52.768;12.124;2022-10-23T03:28:17;11.20;99.90
64012;DHT22;50211;52.768;12.124;2022-10-23T03:30:43;11.00;99.90
64012;DHT22;50211;52.768;12.124;2022-10-23T03:33:08;11.00;99.90
64012;DHT22;50211;52.768;12.124;2022-10-23T03:35:34;11.00;99.90
64012;DHT22;50211;52.768;12.124;2022-10-23T03:37:59;10.90;99.90
64012;DHT22;50211;52.768;12.124;2022-10-23T03:40:25;10.80;99.90
64012;DHT22;50211;52.768;12.124;2022-10-23T03:42:50;10.70;99.90
64012;DHT22;50211;52.768;12.124;2022-10-23T03:45:16;10.80;99.90
64012;DHT22;50211;52.768;12.124;2022-10-23T03:47:41;10.70;99.90
64012;DHT22;50211;52.768;12.124;2022-10-23T03:50:08;10.70;99.90
64012;DHT22;50211;52.768;12.124;2022-10-23T03:52:34;10.70;99.90
64012;DHT22;50211;52.768;12.124;2022-10-23T03:55:00;10.60;99.90
64012;DHT22;50211;52.768;12.124;2022-10-23T03:57:25;10.60;99.90
64012;DHT22;50211;52.768;12.124;2022-10-23T03:59:51;10.50;99.90
64012;DHT22;50211;52.768;12.124;2022-10-23T04:02:17;10.40;99.90
64012;DHT22;50211;52.768;12.124;2022-10-23T04:04:42;10.20;99.90
64012;DHT22;50211;52.768;12.124;2022-10-23T04:07:08;10.10;99.90
64012;DHT22;50211;52.768;12.124;2022-10-23T04:09:33;10.10;99.90
64012;DHT22;50211;52.768;12.124;2022-10-23T04:11:59;10.10;99.90
64012;DHT22;50211;52.768;12.124;2022-10-23T04:14:24;10.10;99.90
64012;DHT22;50211;52.768;12.124;2022-10-23T04:16:50;10.10;99.90
64012;DHT22;50211;52.768;12.124;2022-10-23T04:19:15;10.00;99.90
64012;DHT22;50211;52.768;12.124;2022-10-23T04:21:42;10.00;99.90
64012;DHT22;50211;52.768;12.124;2022-10-23T04:24:07;9.80;99.90
64012;DHT22;50211;52.768;12.124;2022-10-23T04:26:33;9.70;99.90
64012;DHT22;50211;52.768;12.124;2022-10-23T04:28:58;9.60;99.90
64012;DHT22;50211;52.768;12.124;2022-10-23T04:31:24;9.50;99.90
64012;DHT22;50211;52.768;12.124;2022-10-23T04:33:50;9.50;99.90
64012;DHT22;50211;52.768;12.124;2022-10-23T04:36:15;9.50;99.90
64012;DHT22;50211;52.768;12.124;2022-10-23T04:38:41;9.50;99.90
64012;DHT22;50211;52.768;12.124;2022-10-23T04:41:07;9.50;99.90
64012;DHT22;50211;52.768;12.124;2022-10-23T04:43:32;9.50;99.90
64012;DHT22;50211;52.768;12.124;2022-10-23T04:45:58;9.50;99.90
64012;DHT22;50211;52.768;12.124;2022-10-23T04:48:23;9.50;99.90
64012;DHT22;50211;52.768;12.124;2022-10-23T04:51:03;9.40;99.90
64012;DHT22;50211;52.768;12.124;2022-10-23T04:53:29;9.40;99.90
64012;DHT22;50211;52.768;12.124;2022-10-23T04:55:56;9.40;99.90
64012;DHT22;50211;52.768;12.124;2022-10-23T04:58:24;9.30;99.90
64012;DHT22;50211;52.768;12.124;2022-10-23T05:00:50;9.30;99.90
64012;DHT22;50211;52.768;12.124;2022-10-23T05:03:16;9.30;99.90
64012;DHT22;50211;52.768;12.124;2022-10-23T05:05:42;9.30;99.90
64012;DHT22;50211;52.768;12.124;2022-10-23T05:08:08;9.30;99.90
64012;DHT22;50211;52.768;12.124;2022-10-23T05:10:34;9.30;99.90
64012;DHT22;50211;52.768;12.124;2022-10-23T05:13:00;9.20;99.90
64012;DHT22;50211;52.768;12.124;2022-10-23T05:15:25;9.20;99.90
64012;DHT22;50211;52.768;12.124;2022-10-23T05:17:54;9.20;99.90
64012;DHT22;50211;52.768;12.124;2022-10-23T05:20:24;9.20;99.90
64012;DHT22;50211;52.768;12.124;2022-10-23T05:22:52;9.20;99.90
64012;DHT22;50211;52.768;12.124;2022-10-23T05:25:19;9.20;99.90
64012;DHT22;50211;52.768;12.124;2022-10-23T05:27:45;9.00;99.90
64012;DHT22;50211;52.768;12.124;2022-10-23T05:30:11;8.90;99.90
64012;DHT22;50211;52.768;12.124;2022-10-23T05:32:36;8.80;99.90
64012;DHT22;50211;52.768;12.124;2022-10-23T05:35:07;8.80;99.90
64012;DHT22;50211;52.768;12.124;2022-10-23T05:37:35;8.80;99.90
64012;DHT22;50211;52.768;12.124;2022-10-23T05:40:01;8.70;99.90
64012;DHT22;50211;52.768;12.124;2022-10-23T05:42:27;8.70;99.90
64012;DHT22;50211;52.768;12.124;2022-10-23T05:44:52;8.60;99.90
64012;DHT22;50211;52.768;12.124;2022-10-23T05:47:18;8.60;99.90
64012;DHT22;50211;52.768;12.124;2022-10-23T05:49:43;8.50;99.90
64012;DHT22;50211;52.768;12.124;2022-10-23T05:52:12;8.50;99.90
64012;DHT22;50211;52.768;12.124;2022-10-23T05:54:38;8.50;99.90
64012;DHT22;50211;52.768;12.124;2022-10-23T05:57:03;8.50;99.90
64012;DHT22;50211;52.768;12.124;2022-10-23T05:59:28;8.40;99.90
64012;DHT22;50211;52.768;12.124;2022-10-23T06:01:54;8.40;99.90
64012;DHT22;50211;52.768;12.124;2022-10-23T06:04:20;8.40;99.90
64012;DHT22;50211;52.768;12.124;2022-10-23T06:06:46;8.40;99.90
64012;DHT22;50211;52.768;12.124;2022-10-23T06:09:12;8.40;99.90
64012;DHT22;50211;52.768;12.124;2022-10-23T06:11:38;8.50;99.90
64012;DHT22;50211;52.768;12.124;2022-10-23T06:14:03;8.50;99.90
64012;DHT22;50211;52.768;12.124;2022-10-23T06:16:30;8.60;99.90
64012;DHT22;50211;52.768;12.124;2022-10-23T06:18:55;8.60;99.90
64012;DHT22;50211;52.768;12.124;2022-10-23T06:21:21;8.60;99.90
64012;DHT22;50211;52.768;12.124;2022-10-23T06:23:47;8.60;99.90
64012;DHT22;50211;52.768;12.124;2022-10-23T06:26:14;8.60;99.90
64012;DHT22;50211;52.768;12.124;2022-10-23T06:28:40;8.70;99.90
64012;DHT22;50211;52.768;12.124;2022-10-23T06:31:12;8.70;99.90
64012;DHT22;50211;52.768;12.124;2022-10-23T06:33:38;8.80;99.90
64012;DHT22;50211;52.768;12.124;2022-10-23T06:36:04;8.90;99.90
64012;DHT22;50211;52.768;12.124;2022-10-23T06:38:32;8.90;99.90
64012;DHT22;50211;52.768;12.124;2022-10-23T06:41:01;8.90;99.90
64012;DHT22;50211;52.768;12.124;2022-10-23T06:43:26;8.90;99.90
64012;DHT22;50211;52.768;12.124;2022-10-23T06:45:53;8.90;99.90
64012;DHT22;50211;52.768;12.124;2022-10-23T06:48:18;8.90;99.90
64012;DHT22;50211;52.768;12.124;2022-10-23T06:50:44;9.00;99.90
64012;DHT22;50211;52.768;12.124;2022-10-23T06:53:10;9.00;99.90
64012;DHT22;50211;52.768;12.124;2022-10-23T06:55:37;9.00;99.90
64012;DHT22;50211;52.768;12.124;2022-10-23T06:58:04;9.00;99.90
64012;DHT22;50211;52.768;12.124;2022-10-23T07:00:36;9.10;99.90
64012;DHT22;50211;52.768;12.124;2022-10-23T07:03:02;9.10;99.90
64012;DHT22;50211;52.768;12.124;2022-10-23T07:05:27;9.20;99.90
64012;DHT22;50211;52.768;12.124;2022-10-23T07:07:53;9.30;99.90
64012;DHT22;50211;52.768;12.124;2022-10-23T07:10:18;9.30;99.90
64012;DHT22;50211;52.768;12.124;2022-10-23T07:12:44;9.40;99.90
64012;DHT22;50211;52.768;12.124;2022-10-23T07:15:09;9.40;99.90
64012;DHT22;50211;52.768;12.124;2022-10-23T07:17:35;9.50;99.90
64012;DHT22;50211;52.768;12.124;2022-10-23T07:20:00;9.50;99.90
64012;DHT22;50211;52.768;12.124;2022-10-23T07:22:26;9.50;99.90
64012;DHT22;50211;52.768;12.124;2022-10-23T07:24:51;9.60;99.90
64012;DHT22;50211;52.768;12.124;2022-10-23T07:27:17;9.70;99.90
64012;DHT22;50211;52.768;12.124;2022-10-23T07:29:42;9.80;99.90
64012;DHT22;50211;52.768;12.124;2022-10-23T07:32:08;9.80;99.90
64012;DHT22;50211;52.768;12.124;2022-10-23T07:34:33;9.80;99.90
64012;DHT22;50211;52.768;12.124;2022-10-23T07:37:01;9.90;99.90
64012;DHT22;50211;52.768;12.124;2022-10-23T07:39:26;10.00;99.90
64012;DHT22;50211;52.768;12.124;2022-10-23T07:41:52;10.10;99.90
64012;DHT22;50211;52.768;12.124;2022-10-23T07:44:17;10.20;99.90
64012;DHT22;50211;52.768;12.124;2022-10-23T07:46:43;10.40;99.90
64012;DHT22;50211;52.768;12.124;2022-10-23T07:49:09;10.50;99.90
64012;DHT22;50211;52.768;12.124;2022-10-23T07:51:35;10.70;99.90
64012;DHT22;50211;52.768;12.124;2022-10-23T07:54:00;10.90;99.90
64012;DHT22;50211;52.768;12.124;2022-10-23T07:56:27;11.20;99.90
64012;DHT22;50211;52.768;12.124;2022-10-23T07:58:54;11.40;99.90
64012;DHT22;50211;52.768;12.124;2022-10-23T08:01:30;11.70;99.90
64012;DHT22;50211;52.768;12.124;2022-10-23T08:03:56;12.00;99.90
64012;DHT22;50211;52.768;12.124;2022-10-23T08:06:21;12.30;99.90
64012;DHT22;50211;52.768;12.124;2022-10-23T08:08:47;12.60;99.90
64012;DHT22;50211;52.768;12.124;2022-10-23T08:11:13;12.80;99.90
64012;DHT22;50211;52.768;12.124;2022-10-23T08:13:39;13.00;99.90
64012;DHT22;50211;52.768;12.124;2022-10-23T08:16:05;13.40;99.90
64012;DHT22;50211;52.768;12.124;2022-10-23T08:18:31;13.50;99.90
64012;DHT22;50211;52.768;12.124;2022-10-23T08:21:00;13.70;99.90
64012;DHT22;50211;52.768;12.124;2022-10-23T08:23:26;13.90;99.90
64012;DHT22;50211;52.768;12.124;2022-10-23T08:25:56;14.10;99.90
64012;DHT22;50211;52.768;12.124;2022-10-23T08:28:22;14.30;99.90
64012;DHT22;50211;52.768;12.124;2022-10-23T08:30:48;14.60;99.90
64012;DHT22;50211;52.768;12.124;2022-10-23T08:33:13;14.90;99.90
64012;DHT22;50211;52.768;12.124;2022-10-23T08:35:39;15.30;99.90
64012;DHT22;50211;52.768;12.124;2022-10-23T08:38:05;15.50;99.90
64012;DHT22;50211;52.768;12.124;2022-10-23T08:40:31;15.60;99.90
64012;DHT22;50211;52.768;12.124;2022-10-23T08:45:47;15.60;99.90
64012;DHT22;50211;52.768;12.124;2022-10-23T08:48:34;15.60;99.90
64012;DHT22;50211;52.768;12.124;2022-10-23T08:51:05;15.80;99.90
64012;DHT22;50211;52.768;12.124;2022-10-23T08:53:40;16.10;99.90
64012;DHT22;50211;52.768;12.124;2022-10-23T08:56:21;16.30;99.90
64012;DHT22;50211;52.768;12.124;2022-10-23T08:58:55;16.60;99.90
64012;DHT22;50211;52.768;12.124;2022-10-23T09:01:36;16.50;99.90
64012;DHT22;50211;52.768;12.124;2022-10-23T09:04:02;16.30;99.90
64012;DHT22;50211;52.768;12.124;2022-10-23T09:12:23;15.50;99.90
64012;DHT22;50211;52.768;12.124;2022-10-23T09:17:24;15.50;99.90
64012;DHT22;50211;52.768;12.124;2022-10-23T09:20:00;15.50;99.90
64012;DHT22;50211;52.768;12.124;2022-10-23T09:22:29;15.70;99.90
64012;DHT22;50211;52.768;12.124;2022-10-23T09:24:54;15.90;99.90
64012;DHT22;50211;52.768;12.124;2022-10-23T09:27:20;16.00;99.90
64012;DHT22;50211;52.768;12.124;2022-10-23T09:29:48;16.30;99.90
64012;DHT22;50211;52.768;12.124;2022-10-23T09:32:14;16.60;99.90
64012;DHT22;50211;52.768;12.124;2022-10-23T09:34:50;16.70;99.90
64012;DHT22;50211;52.768;12.124;2022-10-23T09:37:21;16.70;99.90
64012;DHT22;50211;52.768;12.124;2022-10-23T09:39:47;16.80;99.90
64012;DHT22;50211;52.768;12.124;2022-10-23T09:42:24;16.80;99.90
64012;DHT22;50211;52.768;12.124;2022-10-23T09:44:52;16.70;99.90
64012;DHT22;50211;52.768;12.124;2022-10-23T09:47:23;16.80;99.90
64012;DHT22;50211;52.768;12.124;2022-10-23T09:49:51;16.80;99.90
64012;DHT22;50211;52.768;12.124;2022-10-23T09:54:45;16.90;99.90
64012;DHT22;50211;52.768;12.124;2022-10-23T10:02:41;17.00;99.90
64012;DHT22;50211;52.768;12.124;2022-10-23T10:05:27;17.10;99.90
64012;DHT22;50211;52.768;12.124;2022-10-23T10:07:56;17.20;99.90
64012;DHT22;50211;52.768;12.124;2022-10-23T10:10:22;17.10;99.90
64012;DHT22;50211;52.768;12.124;2022-10-23T10:12:52;17.10;99.90
64012;DHT22;50211;52.768;12.124;2022-10-23T10:15:32;17.00;99.90
64012;DHT22;50211;52.768;12.124;2022-10-23T10:18:20;16.90;99.90
64012;DHT22;50211;52.768;12.124;2022-10-23T10:20:51;16.90;99.90
64012;DHT22;50211;52.768;12.124;2022-10-23T10:23:40;16.80;99.90
64012;DHT22;50211;52.768;12.124;2022-10-23T10:29:43;16.70;99.90
64012;DHT22;50211;52.768;12.124;2022-10-23T10:32:23;16.70;99.90
64012;DHT22;50211;52.768;12.124;2022-10-23T10:35:18;16.80;99.90
64012;DHT22;50211;52.768;12.124;2022-10-23T10:38:05;16.80;99.90
64012;DHT22;50211;52.768;12.124;2022-10-23T10:40:40;17.00;99.90
64012;DHT22;50211;52.768;12.124;2022-10-23T10:46:21;17.10;99.90
64012;DHT22;50211;52.768;12.124;2022-10-23T10:52:01;17.10;99.90
64012;DHT22;50211;52.768;12.124;2022-10-23T10:54:53;17.20;99.90
64012;DHT22;50211;52.768;12.124;2022-10-23T10:57:28;17.30;99.90
64012;DHT22;50211;52.768;12.124;2022-10-23T10:59:57;17.30;99.90
64012;DHT22;50211;52.768;12.124;2022-10-23T11:02:27;17.40;99.90
64012;DHT22;50211;52.768;12.124;2022-10-23T11:08:00;17.60;99.90
64012;DHT22;50211;52.768;12.124;2022-10-23T11:10:28;17.60;99.90
64012;DHT22;50211;52.768;12.124;2022-10-23T11:12:55;17.60;99.90
64012;DHT22;50211;52.768;12.124;2022-10-23T11:15:27;17.80;99.90
64012;DHT22;50211;52.768;12.124;2022-10-23T11:17:57;17.90;99.90
64012;DHT22;50211;52.768;12.124;2022-10-23T11:20:42;18.10;99.90
64012;DHT22;50211;52.768;12.124;2022-10-23T11:32:53;18.20;99.90
64012;DHT22;50211;52.768;12.124;2022-10-23T11:35:41;18.20;99.90
64012;DHT22;50211;52.768;12.124;2022-10-23T11:38:16;18.30;99.90
64012;DHT22;50211;52.768;12.124;2022-10-23T11:40:48;18.30;99.90
64012;DHT22;50211;52.768;12.124;2022-10-23T11:43:32;18.30;99.90
64012;DHT22;50211;52.768;12.124;2022-10-23T11:46:12;18.30;99.90
64012;DHT22;50211;52.768;12.124;2022-10-23T11:48:40;18.30;99.90
64012;DHT22;50211;52.768;12.124;2022-10-23T11:51:28;18.20;99.90
64012;DHT22;50211;52.768;12.124;2022-10-23T11:59:32;18.10;99.90
64012;DHT22;50211;52.768;12.124;2022-10-23T12:02:00;18.10;99.90
64012;DHT22;50211;52.768;12.124;2022-10-23T12:04:38;18.10;99.90
64012;DHT22;50211;52.768;12.124;2022-10-23T12:09:44;18.00;99.90
64012;DHT22;50211;52.768;12.124;2022-10-23T12:19:51;17.80;99.90
64012;DHT22;50211;52.768;12.124;2022-10-23T12:22:17;17.80;99.90
64012;DHT22;50211;52.768;12.124;2022-10-23T12:27:47;17.80;99.90
64012;DHT22;50211;52.768;12.124;2022-10-23T12:36:21;17.70;99.90
64012;DHT22;50211;52.768;12.124;2022-10-23T12:38:49;17.70;99.90
64012;DHT22;50211;52.768;12.124;2022-10-23T12:41:15;17.60;99.90
64012;DHT22;50211;52.768;12.124;2022-10-23T12:43:43;17.70;99.90
64012;DHT22;50211;52.768;12.124;2022-10-23T12:49:01;17.60;99.90
64012;DHT22;50211;52.768;12.124;2022-10-23T12:51:32;17.60;99.90
64012;DHT22;50211;52.768;12.124;2022-10-23T12:53:58;17.70;99.90
64012;DHT22;50211;52.768;12.124;2022-10-23T12:56:25;17.70;99.90
64012;DHT22;50211;52.768;12.124;2022-10-23T12:58:54;17.70;99.90
64012;DHT22;50211;52.768;12.124;2022-10-23T13:01:26;17.70;99.90
64012;DHT22;50211;52.768;12.124;2022-10-23T13:03:59;17.80;99.90
64012;DHT22;50211;52.768;12.124;2022-10-23T13:06:27;17.80;99.90
64012;DHT22;50211;52.768;12.124;2022-10-23T13:08:53;18.00;99.90
64012;DHT22;50211;52.768;12.124;2022-10-23T13:11:20;18.10;99.90
64012;DHT22;50211;52.768;12.124;2022-10-23T13:13:46;18.10;99.90
64012;DHT22;50211;52.768;12.124;2022-10-23T13:16:23;18.20;99.90
64012;DHT22;50211;52.768;12.124;2022-10-23T13:18:49;18.30;99.90
64012;DHT22;50211;52.768;12.124;2022-10-23T13:21:23;18.30;99.90
64012;DHT22;50211;52.768;12.124;2022-10-23T13:23:50;18.40;99.90
64012;DHT22;50211;52.768;12.124;2022-10-23T13:26:33;18.40;99.90
64012;DHT22;50211;52.768;12.124;2022-10-23T13:29:02;18.50;99.90
64012;DHT22;50211;52.768;12.124;2022-10-23T13:31:31;18.50;99.90
64012;DHT22;50211;52.768;12.124;2022-10-23T13:36:30;18.30;99.90
64012;DHT22;50211;52.768;12.124;2022-10-23T13:41:26;18.10;99.90
64012;DHT22;50211;52.768;12.124;2022-10-23T13:43:51;18.00;99.90
64012;DHT22;50211;52.768;12.124;2022-10-23T13:46:20;17.90;99.90
64012;DHT22;50211;52.768;12.124;2022-10-23T13:48:46;17.70;99.90
64012;DHT22;50211;52.768;12.124;2022-10-23T13:51:12;17.50;99.90
64012;DHT22;50211;52.768;12.124;2022-10-23T13:53:38;17.40;99.90
64012;DHT22;50211;52.768;12.124;2022-10-23T13:56:04;17.30;99.90
64012;DHT22;50211;52.768;12.124;2022-10-23T13:58:30;17.10;99.90
64012;DHT22;50211;52.768;12.124;2022-10-23T14:00:57;17.10;99.90
64012;DHT22;50211;52.768;12.124;2022-10-23T14:03:22;17.00;99.90
64012;DHT22;50211;52.768;12.124;2022-10-23T14:05:52;16.90;99.90
64012;DHT22;50211;52.768;12.124;2022-10-23T14:08:18;16.80;99.90
64012;DHT22;50211;52.768;12.124;2022-10-23T14:10:43;16.80;99.90
64012;DHT22;50211;52.768;12.124;2022-10-23T14:13:09;16.70;99.90
64012;DHT22;50211;52.768;12.124;2022-10-23T14:15:34;16.70;99.90
64012;DHT22;50211;52.768;12.124;2022-10-23T14:18:00;16.70;99.90
64012;DHT22;50211;52.768;12.124;2022-10-23T14:20:25;16.60;99.90
64012;DHT22;50211;52.768;12.124;2022-10-23T14:22:51;16.60;99.90
64012;DHT22;50211;52.768;12.124;2022-10-23T14:25:17;16.60;99.90
64012;DHT22;50211;52.768;12.124;2022-10-23T14:27:43;16.60;99.90
64012;DHT22;50211;52.768;12.124;2022-10-23T14:30:09;16.60;99.90
64012;DHT22;50211;52.768;12.124;2022-10-23T14:32:35;16.50;99.90
64012;DHT22;50211;52.768;12.124;2022-10-23T14:35:00;16.50;99.90
64012;DHT22;50211;52.768;12.124;2022-10-23T14:37:31;16.50;99.90
64012;DHT22;50211;52.768;12.124;2022-10-23T14:39:58;16.40;99.90
64012;DHT22;50211;52.768;12.124;2022-10-23T14:42:23;16.40;99.90
64012;DHT22;50211;52.768;12.124;2022-10-23T14:44:50;16.40;99.90
64012;DHT22;50211;52.768;12.124;2022-10-23T14:47:16;16.40;99.90
64012;DHT22;50211;52.768;12.124;2022-10-23T14:49:45;16.30;99.90
64012;DHT22;50211;52.768;12.124;2022-10-23T14:52:11;16.30;99.90
64012;DHT22;50211;52.768;12.124;2022-10-23T14:54:37;16.30;99.90
64012;DHT22;50211;52.768;12.124;2022-10-23T14:57:03;16.20;99.90
64012;DHT22;50211;52.768;12.124;2022-10-23T14:59:28;16.10;99.90
64012;DHT22;50211;52.768;12.124;2022-10-23T15:01:54;16.10;99.90
64012;DHT22;50211;52.768;12.124;2022-10-23T15:04:19;16.00;99.90
64012;DHT22;50211;52.768;12.124;2022-10-23T15:06:45;15.90;99.90
64012;DHT22;50211;52.768;12.124;2022-10-23T15:09:12;15.90;99.90
64012;DHT22;50211;52.768;12.124;2022-10-23T15:11:38;15.80;99.90
64012;DHT22;50211;52.768;12.124;2022-10-23T15:14:03;15.80;99.90
64012;DHT22;50211;52.768;12.124;2022-10-23T15:16:29;15.70;99.90
64012;DHT22;50211;52.768;12.124;2022-10-23T15:18:55;15.60;99.90
64012;DHT22;50211;52.768;12.124;2022-10-23T15:21:20;15.60;99.90
64012;DHT22;50211;52.768;12.124;2022-10-23T15:23:46;15.50;99.90
64012;DHT22;50211;52.768;12.124;2022-10-23T15:26:15;15.50;99.90
64012;DHT22;50211;52.768;12.124;2022-10-23T15:28:45;15.50;99.90
64012;DHT22;50211;52.768;12.124;2022-10-23T15:33:58;15.40;99.90
64012;DHT22;50211;52.768;12.124;2022-10-23T15:36:24;15.40;99.90
64012;DHT22;50211;52.768;12.124;2022-10-23T15:38:50;15.40;99.90
64012;DHT22;50211;52.768;12.124;2022-10-23T15:41:20;15.30;99.90
64012;DHT22;50211;52.768;12.124;2022-10-23T15:43:46;15.30;99.90
64012;DHT22;50211;52.768;12.124;2022-10-23T15:46:12;15.20;99.90
64012;DHT22;50211;52.768;12.124;2022-10-23T15:48:37;15.10;99.90
64012;DHT22;50211;52.768;12.124;2022-10-23T15:51:03;15.10;99.90
64012;DHT22;50211;52.768;12.124;2022-10-23T15:53:29;15.00;99.90
64012;DHT22;50211;52.768;12.124;2022-10-23T15:55:54;15.00;99.90
64012;DHT22;50211;52.768;12.124;2022-10-23T15:58:23;15.00;99.90
64012;DHT22;50211;52.768;12.124;2022-10-23T16:00:48;15.00;99.90
64012;DHT22;50211;52.768;12.124;2022-10-23T16:03:14;15.00;99.90
64012;DHT22;50211;52.768;12.124;2022-10-23T16:05:39;14.90;99.90
64012;DHT22;50211;52.768;12.124;2022-10-23T16:08:05;14.90;99.90
64012;DHT22;50211;52.768;12.124;2022-10-23T16:10:30;14.90;99.90
64012;DHT22;50211;52.768;12.124;2022-10-23T16:12:56;14.90;99.90
64012;DHT22;50211;52.768;12.124;2022-10-23T16:15:21;14.90;99.90
64012;DHT22;50211;52.768;12.124;2022-10-23T16:17:47;14.90;99.90
64012;DHT22;50211;52.768;12.124;2022-10-23T16:20:13;14.80;99.90
64012;DHT22;50211;52.768;12.124;2022-10-23T16:22:39;14.80;99.90
64012;DHT22;50211;52.768;12.124;2022-10-23T16:25:04;14.80;99.90
64012;DHT22;50211;52.768;12.124;2022-10-23T16:27:30;14.80;99.90
64012;DHT22;50211;52.768;12.124;2022-10-23T16:29:56;14.80;99.90
64012;DHT22;50211;52.768;12.124;2022-10-23T16:32:21;14.70;99.90
64012;DHT22;50211;52.768;12.124;2022-10-23T16:34:46;14.70;99.90
64012;DHT22;50211;52.768;12.124;2022-10-23T16:37:12;14.70;99.90
64012;DHT22;50211;52.768;12.124;2022-10-23T16:39:37;14.70;99.90
64012;DHT22;50211;52.768;12.124;2022-10-23T16:42:04;14.70;99.90
64012;DHT22;50211;52.768;12.124;2022-10-23T16:44:29;14.60;99.90
64012;DHT22;50211;52.768;12.124;2022-10-23T16:46:55;14.60;99.90
64012;DHT22;50211;52.768;12.124;2022-10-23T16:49:20;14.60;99.90
64012;DHT22;50211;52.768;12.124;2022-10-23T16:51:46;14.60;99.90
64012;DHT22;50211;52.768;12.124;2022-10-23T16:54:11;14.50;99.90
64012;DHT22;50211;52.768;12.124;2022-10-23T16:56:38;14.50;99.90
64012;DHT22;50211;52.768;12.124;2022-10-23T16:59:04;14.50;99.90
64012;DHT22;50211;52.768;12.124;2022-10-23T17:01:31;14.50;99.90
64012;DHT22;50211;52.768;12.124;2022-10-23T17:03:57;14.50;99.90
64012;DHT22;50211;52.768;12.124;2022-10-23T17:06:30;14.50;99.90